BAW090 EGKK-EDDK
Flight info
| Callsign | BAW090 |
|---|---|
| Flight time | 0h 49m |
| Altitude | 33000 |
| Route | ODVIK Y311 DVR UL9 KONAN UL607 SPI T857 DENOV T861 ERUKI T856 DEPOK |
| Aircraft | A35K/H-SDE2E3GHIJ3J4J5LM1ORWXY/LB1D1 |
Departure
| Time | 2026-04-22 06:55 |
|---|---|
| Airport | London Gatwick Airport (EGKK) |
Arrival
| Time | 2026-04-22 07:44 |
|---|---|
| Airport | Cologne Bonn Airport (EDDK) |
| Time | Latitude | Longitude | Altitude | Speed | Heading |
|---|---|---|---|---|---|
| 2026-04-22 06:27 | 51.15180 | -0.19503 | 210 ft | 0 kts | 77° |
| 2026-04-22 06:47 | 51.15176 | -0.19534 | 215 ft | 4 kts | 92° |
| 2026-04-22 06:47 | 51.15182 | -0.19573 | 210 ft | 4 kts | 129° |
| 2026-04-22 06:48 | 51.15203 | -0.19597 | 221 ft | 4 kts | 163° |
| 2026-04-22 06:48 | 51.15228 | -0.19606 | 210 ft | 2 kts | 172° |
| 2026-04-22 06:48 | 51.15230 | -0.19606 | 210 ft | 0 kts | 172° |
| 2026-04-22 06:50 | 51.15216 | -0.19603 | 210 ft | 4 kts | 172° |
| 2026-04-22 06:51 | 51.15169 | -0.19595 | 216 ft | 10 kts | 174° |
| 2026-04-22 06:51 | 51.15089 | -0.19578 | 218 ft | 13 kts | 176° |
| 2026-04-22 06:51 | 51.15011 | -0.19616 | 222 ft | 7 kts | 238° |
| 2026-04-22 06:51 | 51.14996 | -0.19709 | 213 ft | 12 kts | 256° |
| 2026-04-22 06:52 | 51.14975 | -0.19858 | 220 ft | 16 kts | 257° |
| 2026-04-22 06:52 | 51.14948 | -0.20055 | 217 ft | 20 kts | 258° |
| 2026-04-22 06:52 | 51.14915 | -0.20291 | 211 ft | 24 kts | 257° |
| 2026-04-22 06:52 | 51.14878 | -0.20564 | 215 ft | 27 kts | 259° |
| 2026-04-22 06:53 | 51.14838 | -0.20855 | 217 ft | 25 kts | 257° |
| 2026-04-22 06:53 | 51.14798 | -0.21119 | 220 ft | 25 kts | 251° |
| 2026-04-22 06:53 | 51.14761 | -0.21337 | 210 ft | 17 kts | 250° |
| 2026-04-22 06:53 | 51.14689 | -0.21371 | 210 ft | 11 kts | 155° |
| 2026-04-22 06:54 | 51.14652 | -0.21344 | 209 ft | 0 kts | 159° |
| 2026-04-22 06:54 | 51.14651 | -0.21343 | 207 ft | 1 kts | 159° |
| 2026-04-22 06:54 | 51.14612 | -0.21322 | 219 ft | 17 kts | 161° |
| 2026-04-22 06:54 | 51.14521 | -0.21203 | 219 ft | 18 kts | 107° |
| 2026-04-22 06:55 | 51.14537 | -0.20997 | 222 ft | 29 kts | 78° |
| 2026-04-22 06:55 | 51.14642 | -0.20244 | 224 ft | 110 kts | 78° |
| 2026-04-22 06:55 | 51.14859 | -0.18658 | 300 ft | 172 kts | 78° |
| 2026-04-22 06:55 | 51.15105 | -0.16725 | 961 ft | 182 kts | 78° |
| 2026-04-22 06:56 | 51.15378 | -0.14771 | 1856 ft | 183 kts | 77° |
| 2026-04-22 06:56 | 51.15684 | -0.12643 | 2194 ft | 212 kts | 77° |
| 2026-04-22 06:56 | 51.16025 | -0.10217 | 2681 ft | 231 kts | 79° |
| 2026-04-22 06:56 | 51.16368 | -0.07759 | 3743 ft | 223 kts | 80° |
| 2026-04-22 06:57 | 51.16696 | -0.05356 | 4651 ft | 224 kts | 80° |
| 2026-04-22 06:57 | 51.16883 | -0.02854 | 5334 ft | 231 kts | 90° |
| 2026-04-22 06:57 | 51.16865 | -0.00261 | 5957 ft | 237 kts | 92° |
| 2026-04-22 06:57 | 51.16812 | 0.02382 | 6265 ft | 239 kts | 92° |
| 2026-04-22 06:58 | 51.16755 | 0.05051 | 6325 ft | 244 kts | 92° |
| 2026-04-22 06:58 | 51.16700 | 0.07765 | 6454 ft | 246 kts | 92° |
| 2026-04-22 06:58 | 51.16646 | 0.10517 | 7076 ft | 250 kts | 92° |
| 2026-04-22 06:58 | 51.16590 | 0.13292 | 7932 ft | 251 kts | 92° |
| 2026-04-22 06:59 | 51.16539 | 0.16077 | 8770 ft | 253 kts | 91° |
| 2026-04-22 06:59 | 51.16534 | 0.18902 | 9548 ft | 256 kts | 90° |
| 2026-04-22 06:59 | 51.16550 | 0.21773 | 10261 ft | 261 kts | 90° |
| 2026-04-22 06:59 | 51.16565 | 0.24696 | 10966 ft | 267 kts | 90° |
| 2026-04-22 07:00 | 51.16577 | 0.27673 | 11676 ft | 271 kts | 90° |
| 2026-04-22 07:00 | 51.16584 | 0.30701 | 12394 ft | 275 kts | 90° |
| 2026-04-22 07:00 | 51.16590 | 0.33768 | 13120 ft | 279 kts | 89° |
| 2026-04-22 07:00 | 51.16599 | 0.36886 | 13781 ft | 284 kts | 89° |
| 2026-04-22 07:01 | 51.16599 | 0.40053 | 14479 ft | 289 kts | 89° |
| 2026-04-22 07:01 | 51.16598 | 0.43239 | 15163 ft | 293 kts | 89° |
| 2026-04-22 07:01 | 51.16598 | 0.46512 | 15806 ft | 298 kts | 89° |
| 2026-04-22 07:01 | 51.16596 | 0.49846 | 16426 ft | 305 kts | 89° |
| 2026-04-22 07:02 | 51.16593 | 0.53324 | 16737 ft | 322 kts | 89° |
| 2026-04-22 07:02 | 51.16593 | 0.56982 | 16982 ft | 339 kts | 89° |
| 2026-04-22 07:02 | 51.16593 | 0.60818 | 17226 ft | 354 kts | 89° |
| 2026-04-22 07:02 | 51.16590 | 0.64822 | 17467 ft | 368 kts | 89° |
| 2026-04-22 07:03 | 51.16585 | 0.68968 | 17719 ft | 380 kts | 89° |
| 2026-04-22 07:03 | 51.16577 | 0.73219 | 18155 ft | 386 kts | 89° |
| 2026-04-22 07:03 | 51.16566 | 0.77514 | 18648 ft | 390 kts | 89° |
| 2026-04-22 07:03 | 51.16553 | 0.81852 | 19150 ft | 393 kts | 89° |
| 2026-04-22 07:04 | 51.16538 | 0.86231 | 19636 ft | 397 kts | 89° |
| 2026-04-22 07:04 | 51.16522 | 0.90652 | 20113 ft | 400 kts | 89° |
| 2026-04-22 07:04 | 51.16503 | 0.95108 | 20604 ft | 403 kts | 89° |
| 2026-04-22 07:04 | 51.16485 | 0.99535 | 21059 ft | 406 kts | 89° |
| 2026-04-22 07:05 | 51.16464 | 1.04113 | 21511 ft | 410 kts | 89° |
| 2026-04-22 07:05 | 51.16442 | 1.08611 | 21930 ft | 413 kts | 89° |
| 2026-04-22 07:05 | 51.16418 | 1.13208 | 22368 ft | 416 kts | 89° |
| 2026-04-22 07:05 | 51.16392 | 1.17830 | 22796 ft | 418 kts | 89° |
| 2026-04-22 07:06 | 51.16362 | 1.22493 | 23194 ft | 422 kts | 89° |
| 2026-04-22 07:06 | 51.16331 | 1.27176 | 23610 ft | 424 kts | 89° |
| 2026-04-22 07:06 | 51.16297 | 1.31887 | 24010 ft | 427 kts | 89° |
| 2026-04-22 07:06 | 51.16262 | 1.36632 | 24390 ft | 430 kts | 89° |
| 2026-04-22 07:07 | 51.16163 | 1.41418 | 24741 ft | 434 kts | 91° |
| 2026-04-22 07:07 | 51.15944 | 1.46223 | 25088 ft | 437 kts | 93° |
| 2026-04-22 07:07 | 51.15670 | 1.51071 | 25432 ft | 441 kts | 93° |
| 2026-04-22 07:07 | 51.15385 | 1.55943 | 25819 ft | 444 kts | 93° |
| 2026-04-22 07:08 | 51.15105 | 1.60853 | 26164 ft | 447 kts | 93° |
| 2026-04-22 07:08 | 51.14836 | 1.65801 | 26531 ft | 450 kts | 92° |
| 2026-04-22 07:08 | 51.14575 | 1.70803 | 26903 ft | 454 kts | 92° |
| 2026-04-22 07:08 | 51.14319 | 1.75826 | 27293 ft | 457 kts | 92° |
| 2026-04-22 07:09 | 51.14063 | 1.80872 | 27666 ft | 461 kts | 92° |
| 2026-04-22 07:09 | 51.13891 | 1.84265 | 27935 ft | 464 kts | 92° |
| 2026-04-22 07:09 | 51.13546 | 1.91075 | 28476 ft | 468 kts | 92° |
| 2026-04-22 07:09 | 51.13280 | 1.96268 | 28872 ft | 472 kts | 92° |
| 2026-04-22 07:10 | 51.13008 | 2.01496 | 29253 ft | 476 kts | 92° |
| 2026-04-22 07:10 | 51.12734 | 2.06765 | 29758 ft | 477 kts | 92° |
| 2026-04-22 07:10 | 51.12545 | 2.10315 | 30192 ft | 476 kts | 92° |
| 2026-04-22 07:10 | 51.12262 | 2.15586 | 30599 ft | 480 kts | 92° |
| 2026-04-22 07:11 | 51.11972 | 2.20899 | 30968 ft | 484 kts | 92° |
| 2026-04-22 07:11 | 51.11680 | 2.26240 | 31358 ft | 487 kts | 92° |
| 2026-04-22 07:11 | 51.11383 | 2.31619 | 31727 ft | 490 kts | 92° |
| 2026-04-22 07:11 | 51.11082 | 2.37036 | 32077 ft | 493 kts | 92° |
| 2026-04-22 07:12 | 51.10778 | 2.42480 | 32421 ft | 495 kts | 92° |
| 2026-04-22 07:12 | 51.10473 | 2.47881 | 32739 ft | 498 kts | 92° |
| 2026-04-22 07:12 | 51.10160 | 2.53382 | 33107 ft | 500 kts | 93° |
| 2026-04-22 07:12 | 51.09843 | 2.58886 | 33296 ft | 499 kts | 93° |
| 2026-04-22 07:13 | 51.09416 | 2.64358 | 33325 ft | 498 kts | 98° |
| 2026-04-22 07:13 | 51.07731 | 2.75056 | 33321 ft | 499 kts | 103° |
| 2026-04-22 07:14 | 51.05809 | 2.85672 | 33321 ft | 499 kts | 104° |
| 2026-04-22 07:14 | 51.03849 | 2.96256 | 33322 ft | 499 kts | 104° |
| 2026-04-22 07:15 | 51.01894 | 3.06830 | 33321 ft | 499 kts | 104° |
| 2026-04-22 07:15 | 50.99942 | 3.17396 | 33319 ft | 498 kts | 104° |
| 2026-04-22 07:16 | 50.97989 | 3.27923 | 33321 ft | 497 kts | 104° |
| 2026-04-22 07:16 | 50.96086 | 3.38131 | 33321 ft | 497 kts | 104° |
| 2026-04-22 07:17 | 50.94129 | 3.48565 | 33321 ft | 497 kts | 104° |
| 2026-04-22 07:17 | 50.92150 | 3.59048 | 33321 ft | 496 kts | 104° |
| 2026-04-22 07:18 | 50.90159 | 3.69518 | 33321 ft | 496 kts | 104° |
| 2026-04-22 07:18 | 50.88142 | 3.79976 | 33320 ft | 496 kts | 105° |
| 2026-04-22 07:19 | 50.86111 | 3.90420 | 33325 ft | 496 kts | 105° |
| 2026-04-22 07:19 | 50.84073 | 4.00855 | 33330 ft | 496 kts | 105° |
| 2026-04-22 07:20 | 50.82031 | 4.11262 | 33334 ft | 494 kts | 105° |
| 2026-04-22 07:20 | 50.79993 | 4.21604 | 33340 ft | 493 kts | 105° |
| 2026-04-22 07:21 | 50.77946 | 4.31938 | 33339 ft | 492 kts | 105° |
| 2026-04-22 07:21 | 50.75892 | 4.42254 | 33339 ft | 492 kts | 105° |
| 2026-04-22 07:22 | 50.73825 | 4.52575 | 33340 ft | 492 kts | 105° |
| 2026-04-22 07:22 | 50.71768 | 4.62815 | 33339 ft | 492 kts | 105° |
| 2026-04-22 07:23 | 50.69758 | 4.73151 | 33339 ft | 491 kts | 104° |
| 2026-04-22 07:23 | 50.67772 | 4.83455 | 33330 ft | 491 kts | 104° |
| 2026-04-22 07:24 | 50.65767 | 4.93746 | 33330 ft | 491 kts | 104° |
| 2026-04-22 07:24 | 50.63689 | 5.03985 | 33329 ft | 490 kts | 105° |
| 2026-04-22 07:25 | 50.61556 | 5.14202 | 33323 ft | 491 kts | 105° |
| 2026-04-22 07:25 | 50.59430 | 5.24401 | 33321 ft | 490 kts | 105° |
| 2026-04-22 07:26 | 50.57307 | 5.34589 | 33321 ft | 490 kts | 105° |
| 2026-04-22 07:26 | 50.55181 | 5.44759 | 33217 ft | 485 kts | 105° |
| 2026-04-22 07:26 | 50.54142 | 5.49706 | 32510 ft | 482 kts | 105° |
| 2026-04-22 07:27 | 50.53212 | 5.54775 | 31496 ft | 483 kts | 99° |
| 2026-04-22 07:27 | 50.52710 | 5.59986 | 30610 ft | 480 kts | 91° |
| 2026-04-22 07:27 | 50.52713 | 5.65193 | 29782 ft | 475 kts | 83° |
| 2026-04-22 07:27 | 50.53242 | 5.70271 | 29075 ft | 467 kts | 74° |
| 2026-04-22 07:28 | 50.55090 | 5.79924 | 27725 ft | 456 kts | 70° |
| 2026-04-22 07:28 | 50.56088 | 5.84625 | 27075 ft | 450 kts | 70° |
| 2026-04-22 07:28 | 50.57088 | 5.89263 | 26455 ft | 444 kts | 70° |
| 2026-04-22 07:29 | 50.58072 | 5.93843 | 25797 ft | 439 kts | 71° |
| 2026-04-22 07:29 | 50.59036 | 5.98377 | 25149 ft | 434 kts | 71° |
| 2026-04-22 07:29 | 50.59965 | 6.02791 | 24518 ft | 428 kts | 71° |
| 2026-04-22 07:29 | 50.60886 | 6.07206 | 23901 ft | 421 kts | 72° |
| 2026-04-22 07:30 | 50.61790 | 6.11560 | 23258 ft | 415 kts | 72° |
| 2026-04-22 07:30 | 50.62622 | 6.15903 | 22519 ft | 412 kts | 75° |
| 2026-04-22 07:30 | 50.63168 | 6.20316 | 21777 ft | 409 kts | 82° |
| 2026-04-22 07:30 | 50.63363 | 6.24769 | 21013 ft | 407 kts | 89° |
| 2026-04-22 07:31 | 50.63292 | 6.29200 | 20292 ft | 403 kts | 91° |
| 2026-04-22 07:31 | 50.63122 | 6.33599 | 19566 ft | 400 kts | 92° |
| 2026-04-22 07:31 | 50.62904 | 6.37945 | 18845 ft | 396 kts | 93° |
| 2026-04-22 07:31 | 50.62663 | 6.42249 | 18123 ft | 393 kts | 94° |
| 2026-04-22 07:32 | 50.62415 | 6.46515 | 17399 ft | 390 kts | 94° |
| 2026-04-22 07:32 | 50.62174 | 6.50695 | 16701 ft | 386 kts | 94° |
| 2026-04-22 07:32 | 50.61942 | 6.54878 | 16000 ft | 381 kts | 93° |
| 2026-04-22 07:32 | 50.62019 | 6.59016 | 15276 ft | 376 kts | 81° |
| 2026-04-22 07:33 | 50.62629 | 6.62993 | 14576 ft | 371 kts | 73° |
| 2026-04-22 07:33 | 50.63385 | 6.66862 | 13831 ft | 368 kts | 72° |
| 2026-04-22 07:33 | 50.64144 | 6.70688 | 13141 ft | 364 kts | 72° |
| 2026-04-22 07:33 | 50.64900 | 6.74481 | 12379 ft | 360 kts | 72° |
| 2026-04-22 07:34 | 50.65646 | 6.78227 | 11714 ft | 356 kts | 72° |
| 2026-04-22 07:34 | 50.66449 | 6.81828 | 11419 ft | 341 kts | 65° |
| 2026-04-22 07:34 | 50.67818 | 6.84763 | 11158 ft | 328 kts | 44° |
| 2026-04-22 07:34 | 50.69731 | 6.86589 | 10900 ft | 319 kts | 22° |
| 2026-04-22 07:35 | 50.71887 | 6.87085 | 10652 ft | 312 kts | 0° |
| 2026-04-22 07:35 | 50.74003 | 6.86633 | 10473 ft | 301 kts | 353° |
| 2026-04-22 07:35 | 50.76019 | 6.86012 | 10261 ft | 290 kts | 353° |
| 2026-04-22 07:35 | 50.77976 | 6.85384 | 9908 ft | 285 kts | 352° |
| 2026-04-22 07:36 | 50.79913 | 6.84758 | 9479 ft | 283 kts | 352° |
| 2026-04-22 07:36 | 50.81839 | 6.84142 | 9042 ft | 281 kts | 352° |
| 2026-04-22 07:36 | 50.83757 | 6.83531 | 8610 ft | 280 kts | 352° |
| 2026-04-22 07:36 | 50.85656 | 6.82923 | 8184 ft | 278 kts | 352° |
| 2026-04-22 07:37 | 50.87547 | 6.82322 | 7732 ft | 276 kts | 352° |
| 2026-04-22 07:37 | 50.89424 | 6.81725 | 7298 ft | 275 kts | 352° |
| 2026-04-22 07:37 | 50.91292 | 6.81137 | 6882 ft | 272 kts | 352° |
| 2026-04-22 07:37 | 50.93119 | 6.80568 | 6448 ft | 271 kts | 352° |
| 2026-04-22 07:38 | 50.94967 | 6.79999 | 6040 ft | 269 kts | 352° |
| 2026-04-22 07:38 | 50.96800 | 6.79442 | 5632 ft | 267 kts | 352° |
| 2026-04-22 07:38 | 50.98615 | 6.78885 | 5205 ft | 266 kts | 352° |
| 2026-04-22 07:38 | 51.00435 | 6.78634 | 4773 ft | 260 kts | 9° |
| 2026-04-22 07:39 | 51.02093 | 6.79600 | 4337 ft | 252 kts | 37° |
| 2026-04-22 07:39 | 51.03229 | 6.81643 | 3906 ft | 247 kts | 64° |
| 2026-04-22 07:39 | 51.03595 | 6.84271 | 3455 ft | 246 kts | 91° |
| 2026-04-22 07:39 | 51.03343 | 6.86949 | 3109 ft | 244 kts | 101° |
| 2026-04-22 07:40 | 51.02957 | 6.89569 | 3013 ft | 244 kts | 102° |
| 2026-04-22 07:40 | 51.02294 | 6.92054 | 3010 ft | 246 kts | 122° |
| 2026-04-22 07:40 | 51.01151 | 6.94056 | 3027 ft | 243 kts | 136° |
| 2026-04-22 07:40 | 50.99894 | 6.95721 | 3048 ft | 228 kts | 137° |
| 2026-04-22 07:41 | 50.98705 | 6.97377 | 3013 ft | 227 kts | 134° |
| 2026-04-22 07:41 | 50.97550 | 6.99097 | 2777 ft | 226 kts | 134° |
| 2026-04-22 07:41 | 50.96407 | 7.00756 | 2472 ft | 217 kts | 135° |
| 2026-04-22 07:41 | 50.95343 | 7.02297 | 2198 ft | 198 kts | 134° |
| 2026-04-22 07:42 | 50.94387 | 7.03687 | 1953 ft | 181 kts | 135° |
| 2026-04-22 07:42 | 50.93490 | 7.04992 | 1699 ft | 168 kts | 134° |
| 2026-04-22 07:42 | 50.92676 | 7.06188 | 1473 ft | 152 kts | 133° |
| 2026-04-22 07:42 | 50.91928 | 7.07303 | 1248 ft | 143 kts | 133° |
| 2026-04-22 07:43 | 50.91182 | 7.08357 | 1143 ft | 143 kts | 136° |
| 2026-04-22 07:43 | 50.90453 | 7.09384 | 905 ft | 141 kts | 134° |
| 2026-04-22 07:43 | 50.89735 | 7.10458 | 695 ft | 142 kts | 134° |
| 2026-04-22 07:43 | 50.89199 | 7.11229 | 568 ft | 142 kts | 133° |
| 2026-04-22 07:44 | 50.88481 | 7.12273 | 404 ft | 142 kts | 135° |
| 2026-04-22 07:44 | 50.87765 | 7.13327 | 255 ft | 136 kts | 136° |
| 2026-04-22 07:44 | 50.87192 | 7.14144 | 262 ft | 86 kts | 137° |
| 2026-04-22 07:44 | 50.86937 | 7.14516 | 263 ft | 33 kts | 148° |
| 2026-04-22 07:45 | 50.86888 | 7.14515 | 262 ft | 5 kts | 228° |
| 2026-04-22 07:45 | 50.86881 | 7.14484 | 262 ft | 1 kts | 259° |
| 2026-04-22 07:45 | 50.86880 | 7.14459 | 263 ft | 3 kts | 265° |
| 2026-04-22 07:45 | 50.86881 | 7.14412 | 264 ft | 5 kts | 272° |
| 2026-04-22 07:46 | 50.86888 | 7.14331 | 265 ft | 15 kts | 279° |
| 2026-04-22 07:46 | 50.86917 | 7.14054 | 257 ft | 28 kts | 279° |
| 2026-04-22 07:46 | 50.87014 | 7.13789 | 249 ft | 26 kts | 321° |
| 2026-04-22 07:46 | 50.87140 | 7.13613 | 245 ft | 25 kts | 317° |
| 2026-04-22 07:47 | 50.87249 | 7.13454 | 242 ft | 23 kts | 317° |
| 2026-04-22 07:47 | 50.87377 | 7.13265 | 239 ft | 27 kts | 316° |
| 2026-04-22 07:47 | 50.87509 | 7.13074 | 238 ft | 26 kts | 318° |
| 2026-04-22 07:47 | 50.87653 | 7.12868 | 239 ft | 27 kts | 317° |
| 2026-04-22 07:48 | 50.87782 | 7.12680 | 236 ft | 25 kts | 317° |
| 2026-04-22 07:48 | 50.87890 | 7.12618 | 239 ft | 10 kts | 3° |
| 2026-04-22 07:48 | 50.87970 | 7.12604 | 236 ft | 12 kts | 333° |
| 2026-04-22 07:48 | 50.88030 | 7.12500 | 236 ft | 14 kts | 302° |
| 2026-04-22 07:49 | 50.88086 | 7.12351 | 241 ft | 18 kts | 304° |
| 2026-04-22 07:49 | 50.88152 | 7.12203 | 239 ft | 16 kts | 306° |
| 2026-04-22 07:49 | 50.88193 | 7.12110 | 240 ft | 6 kts | 300° |
| 2026-04-22 07:49 | 50.88188 | 7.12053 | 242 ft | 6 kts | 245° |
| 2026-04-22 07:50 | 50.88172 | 7.12028 | 242 ft | 0 kts | 220° |